Time;durP1;ratioP1;P1;durP2;ratioP2;P2;SDS_P1;SDS_P2;PMS_P1;PMS_P2;Temp;Humidity;BMP_temperature;BMP_pressure;BME280_temperature;BME280_humidity;BME280_pressure;Samples;Min_cycle;Max_cycle;Signal;HPM_P1;HPM_P2
2021/08/15 00:01:23;;;;;;;10.20;9.30;;;22.30;1.00;;;;;;5080909;28;20201;-53
2021/08/15 00:03:49;;;;;;;12.27;9.20;;;22.30;1.00;;;;;;5076801;28;20698;-55
2021/08/15 00:06:15;;;;;;;9.97;8.90;;;22.30;1.00;;;;;;5082998;28;20191;-52
2021/08/15 00:08:41;;;;;;;9.50;8.60;;;22.30;1.00;;;;;;5077795;28;20448;-53
2021/08/15 00:11:07;;;;;;;9.90;8.80;;;22.20;1.00;;;;;;5071175;28;20530;-53
2021/08/15 00:13:32;;;;;;;9.93;8.93;;;22.20;1.00;;;;;;5072515;28;20182;-52
2021/08/15 00:15:58;;;;;;;11.43;10.20;;;22.20;1.00;;;;;;5078064;28;20184;-52
2021/08/15 00:18:24;;;;;;;11.40;9.50;;;22.10;1.00;;;;;;5087144;28;20267;-53
2021/08/15 00:20:50;;;;;;;11.33;9.37;;;22.20;1.00;;;;;;5080167;28;20460;-53
2021/08/15 00:23:15;;;;;;;10.53;9.53;;;22.10;1.00;;;;;;5071192;28;21097;-54
2021/08/15 00:25:41;;;;;;;12.60;9.90;;;22.10;1.00;;;;;;5078200;28;20194;-52
2021/08/15 00:28:06;;;;;;;9.97;8.97;;;22.00;1.00;;;;;;5084627;28;20215;-54
2021/08/15 00:30:32;;;;;;;11.33;10.20;;;21.90;1.00;;;;;;5083834;28;20290;-53
2021/08/15 00:32:58;;;;;;;11.33;9.43;;;21.90;1.00;;;;;;5089306;28;20179;-53
2021/08/15 00:35:23;;;;;;;10.90;9.80;;;21.90;1.00;;;;;;5088056;28;20190;-52
2021/08/15 00:37:49;;;;;;;10.00;9.00;;;21.80;1.00;;;;;;5082550;28;20180;-53
2021/08/15 00:40:15;;;;;;;10.40;9.40;;;21.90;1.00;;;;;;5072848;28;20183;-52
2021/08/15 00:42:40;;;;;;;9.87;8.87;;;21.80;1.00;;;;;;5077810;28;20225;-54
2021/08/15 00:45:07;;;;;;;9.63;8.73;;;21.90;1.00;;;;;;5084280;28;20456;-54
2021/08/15 00:47:32;;;;;;;10.17;9.20;;;21.80;1.00;;;;;;5090576;28;20214;-53
2021/08/15 00:49:59;;;;;;;10.13;9.10;;;21.80;1.00;;;;;;5088643;28;20836;-54
2021/08/15 00:52:25;;;;;;;9.07;8.27;;;21.70;1.00;;;;;;5083986;28;20258;-52
2021/08/15 00:54:51;;;;;;;10.50;9.50;;;21.70;1.00;;;;;;5079687;28;20513;-54
2021/08/15 00:57:16;;;;;;;9.63;8.60;;;21.60;1.00;;;;;;5080847;28;20222;-55
2021/08/15 00:59:42;;;;;;;10.63;9.53;;;21.60;1.00;;;;;;5078634;28;20183;-53
2021/08/15 01:02:08;;;;;;;10.73;9.63;;;21.60;1.00;;;;;;5089267;28;20227;-55
2021/08/15 01:04:37;;;;;;;8.73;7.83;;;21.60;1.00;;;;;;5082521;28;20509;-55
2021/08/15 01:07:04;;;;;;;9.93;8.93;;;21.50;1.00;;;;;;5086172;28;20220;-54
2021/08/15 01:09:30;;;;;;;11.97;10.13;;;21.50;1.00;;;;;;5077615;28;20806;-54
2021/08/15 01:11:56;;;;;;;10.00;9.10;;;21.60;1.00;;;;;;5085156;28;20471;-52
2021/08/15 01:14:21;;;;;;;10.27;9.27;;;21.60;1.00;;;;;;5072766;28;20186;-54
2021/08/15 01:16:47;;;;;;;9.63;8.60;;;21.50;1.00;;;;;;5073036;28;20215;-54
2021/08/15 01:19:14;;;;;;;10.20;9.23;;;21.50;1.00;;;;;;5089620;28;20175;-54
2021/08/15 01:21:41;;;;;;;8.80;8.00;;;21.40;1.00;;;;;;5092869;28;20194;-54
2021/08/15 01:24:07;;;;;;;10.10;8.67;;;21.30;1.00;;;;;;5074686;28;20425;-53
2021/08/15 01:26:32;;;;;;;9.23;8.40;;;21.30;1.00;;;;;;5076126;28;20813;-53
2021/08/15 01:28:58;;;;;;;10.30;8.50;;;21.30;1.00;;;;;;5087034;28;20187;-52
2021/08/15 01:31:24;;;;;;;9.63;8.63;;;21.30;1.00;;;;;;5087878;28;20588;-52
2021/08/15 01:33:50;;;;;;;9.97;8.97;;;21.30;1.00;;;;;;5076855;28;20637;-54
2021/08/15 01:36:19;;;;;;;9.50;8.60;;;21.30;1.00;;;;;;5081210;28;20498;-52
2021/08/15 01:38:46;;;;;;;9.67;8.77;;;21.20;1.00;;;;;;5074745;28;20541;-55
2021/08/15 01:41:12;;;;;;;10.27;8.80;;;21.30;1.00;;;;;;5083981;28;20467;-53
2021/08/15 01:43:54;;;;;;;12.33;8.87;;;21.30;1.00;;;;;;5077422;28;20433;-55
2021/08/15 01:46:39;;;;;;;8.70;7.90;;;21.20;1.00;;;;;;5087644;28;20458;-53
2021/08/15 01:49:04;;;;;;;9.87;8.87;;;21.20;1.00;;;;;;5081286;28;20794;-54
2021/08/15 01:51:31;;;;;;;9.37;8.07;;;21.10;1.00;;;;;;5074374;28;20457;-57
2021/08/15 01:53:58;;;;;;;10.03;9.13;;;21.00;1.00;;;;;;5090119;28;20536;-55
2021/08/15 01:56:24;;;;;;;9.37;8.50;;;21.00;1.00;;;;;;5079866;28;20455;-53
2021/08/15 01:58:49;;;;;;;9.13;8.30;;;20.90;1.00;;;;;;5093573;28;20437;-55
2021/08/15 02:01:17;;;;;;;9.60;8.50;;;20.90;1.00;;;;;;5093509;28;20929;-53
2021/08/15 02:03:43;;;;;;;9.83;8.90;;;20.80;1.00;;;;;;5078197;28;20179;-53
2021/08/15 02:06:09;;;;;;;10.23;9.17;;;20.80;1.00;;;;;;5077390;28;20502;-57
2021/08/15 02:08:35;;;;;;;11.73;8.97;;;20.80;1.00;;;;;;5072388;28;20441;-54
2021/08/15 02:11:00;;;;;;;10.47;9.37;;;20.80;1.00;;;;;;5075940;28;20208;-52
2021/08/15 02:13:26;;;;;;;11.30;8.97;;;20.80;1.00;;;;;;5080507;28;20183;-55
2021/08/15 02:15:52;;;;;;;10.67;9.37;;;20.80;1.00;;;;;;5084385;28;20270;-54
2021/08/15 02:18:17;;;;;;;9.60;8.57;;;20.80;1.00;;;;;;5076216;28;20552;-54
2021/08/15 02:20:43;;;;;;;10.40;9.30;;;21.80;1.00;;;;;;5080754;28;20195;-54
2021/08/15 02:23:09;;;;;;;10.00;9.10;;;20.60;1.00;;;;;;5082849;28;20187;-56
2021/08/15 02:25:34;;;;;;;13.30;10.03;;;20.60;1.00;;;;;;5075043;28;20188;-53
2021/08/15 02:28:00;;;;;;;9.33;8.43;;;20.50;1.00;;;;;;5079192;28;20445;-54
2021/08/15 02:30:26;;;;;;;10.10;9.10;;;20.50;1.00;;;;;;5088747;28;20214;-54
2021/08/15 02:32:52;;;;;;;10.83;9.30;;;20.60;1.00;;;;;;5086905;28;20174;-53
2021/08/15 02:35:18;;;;;;;9.57;8.63;;;20.60;1.00;;;;;;5090522;28;20180;-54
2021/08/15 02:37:47;;;;;;;11.00;9.90;;;20.50;1.00;;;;;;5077587;28;20591;-52
2021/08/15 02:40:14;;;;;;;10.37;9.37;;;20.70;1.00;;;;;;5080716;28;20645;-53
2021/08/15 02:42:42;;;;;;;10.50;9.40;;;20.50;1.00;;;;;;5082986;28;20762;-53
2021/08/15 02:45:10;;;;;;;10.67;8.93;;;20.40;1.00;;;;;;5073827;28;20452;-53
2021/08/15 02:47:35;;;;;;;11.80;9.80;;;20.40;1.00;;;;;;5087414;28;20459;-53
2021/08/15 02:50:02;;;;;;;9.50;8.60;;;20.40;1.00;;;;;;5080741;28;20433;-54
2021/08/15 02:52:28;;;;;;;10.40;9.40;;;20.40;1.00;;;;;;5074482;28;20513;-55
2021/08/15 02:54:53;;;;;;;9.53;8.53;;;20.40;1.00;;;;;;5081328;28;20457;-53
2021/08/15 02:57:19;;;;;;;10.10;9.10;;;20.40;1.00;;;;;;5077050;28;20183;-53
2021/08/15 02:59:45;;;;;;;9.90;8.97;;;20.30;1.00;;;;;;5072858;28;20186;-51
2021/08/15 03:02:13;;;;;;;10.23;9.23;;;20.40;1.00;;;;;;5086481;28;20567;-54
2021/08/15 03:04:38;;;;;;;10.57;9.40;;;20.30;1.00;;;;;;5084241;28;20196;-53
2021/08/15 03:07:04;;;;;;;9.83;8.93;;;20.40;1.00;;;;;;5092016;28;20472;-53
2021/08/15 03:09:30;;;;;;;13.53;8.70;;;20.30;1.00;;;;;;5072706;28;20262;-52
2021/08/15 03:11:56;;;;;;;10.50;8.80;;;20.20;1.00;;;;;;5082981;28;20203;-52
2021/08/15 03:14:22;;;;;;;10.23;9.13;;;20.30;1.00;;;;;;5072595;28;20676;-55
2021/08/15 03:16:47;;;;;;;11.73;9.27;;;20.20;1.00;;;;;;5082479;28;20548;-56
2021/08/15 03:19:13;;;;;;;10.00;8.57;;;20.20;1.00;;;;;;5077305;28;20187;-52
2021/08/15 03:21:39;;;;;;;9.37;8.40;;;20.10;1.00;;;;;;5092584;28;20179;-53
2021/08/15 03:24:05;;;;;;;12.27;10.10;;;20.10;1.00;;;;;;5088773;28;20179;-56
2021/08/15 03:26:36;;;;;;;9.50;8.70;;;20.10;1.00;;;;;;5083855;28;20459;-55
2021/08/15 03:29:01;;;;;;;13.27;7.80;;;20.00;1.00;;;;;;5076641;28;20187;-53
2021/08/15 03:31:27;;;;;;;10.23;8.50;;;20.00;1.00;;;;;;5091778;28;21052;-55
2021/08/15 03:33:53;;;;;;;10.70;9.60;;;20.00;1.00;;;;;;5079563;28;20520;-52
2021/08/15 03:36:18;;;;;;;9.97;8.80;;;20.00;1.00;;;;;;5092398;28;20649;-54
2021/08/15 03:38:44;;;;;;;9.57;8.67;;;19.90;1.00;;;;;;5084763;28;20625;-52
2021/08/15 03:41:12;;;;;;;10.00;9.00;;;19.90;1.00;;;;;;5074667;28;20191;-53
2021/08/15 03:43:38;;;;;;;9.63;8.43;;;19.90;1.00;;;;;;5084133;28;20199;-55
2021/08/15 03:46:03;;;;;;;9.90;9.00;;;19.80;1.00;;;;;;5082101;28;20446;-52
2021/08/15 03:48:29;;;;;;;9.77;8.83;;;19.80;1.00;;;;;;5076826;28;20704;-54
2021/08/15 03:50:54;;;;;;;10.97;8.87;;;19.70;1.00;;;;;;5084512;28;20324;-55
2021/08/15 03:53:20;;;;;;;10.40;9.50;;;19.80;1.00;;;;;;5086536;28;20187;-55
2021/08/15 03:55:46;;;;;;;9.80;8.80;;;19.70;1.00;;;;;;5087767;28;20182;-53
2021/08/15 03:58:11;;;;;;;10.40;8.87;;;19.70;1.00;;;;;;5087995;28;21781;-56
2021/08/15 04:00:40;;;;;;;11.17;9.17;;;19.80;1.00;;;;;;5088387;28;20499;-55
2021/08/15 04:03:09;;;;;;;9.83;8.00;;;19.80;1.00;;;;;;5080950;28;20195;-54
2021/08/15 04:05:35;;;;;;;9.10;8.20;;;19.70;1.00;;;;;;5084293;28;20563;-54
2021/08/15 04:08:01;;;;;;;9.97;8.57;;;19.80;1.00;;;;;;5087287;28;20568;-53
2021/08/15 04:10:27;;;;;;;12.00;9.60;;;19.80;1.00;;;;;;5081859;28;20555;-52
2021/08/15 04:12:52;;;;;;;10.17;9.07;;;19.80;1.00;;;;;;5086284;28;20195;-52
2021/08/15 04:15:19;;;;;;;9.77;8.77;;;19.90;1.00;;;;;;5090033;28;20194;-54
2021/08/15 04:17:44;;;;;;;10.10;9.20;;;19.90;1.00;;;;;;5086181;28;20695;-55
2021/08/15 04:20:10;;;;;;;10.27;9.27;;;20.30;1.00;;;;;;5087245;28;20560;-54
2021/08/15 04:22:36;;;;;;;10.40;9.30;;;20.00;1.00;;;;;;5088155;28;20190;-53
2021/08/15 04:25:01;;;;;;;10.40;9.50;;;20.00;1.00;;;;;;5086109;28;20453;-52
2021/08/15 04:27:27;;;;;;;9.90;8.83;;;20.20;1.00;;;;;;5085486;28;20203;-53
2021/08/15 04:29:52;;;;;;;11.43;10.27;;;20.20;1.00;;;;;;5088091;28;20205;-55
2021/08/15 04:32:18;;;;;;;9.83;8.90;;;20.30;1.00;;;;;;5084762;28;20252;-53
2021/08/15 04:34:43;;;;;;;10.80;9.70;;;20.20;1.00;;;;;;5085691;28;20194;-52
2021/08/15 04:37:09;;;;;;;9.80;8.90;;;20.20;1.00;;;;;;5085015;28;20236;-52
2021/08/15 04:39:36;;;;;;;10.97;9.20;;;20.20;1.00;;;;;;5087881;28;20182;-52
2021/08/15 04:42:02;;;;;;;10.90;9.80;;;20.20;1.00;;;;;;5085141;28;20194;-54
2021/08/15 04:44:27;;;;;;;12.73;9.50;;;20.30;1.00;;;;;;5072175;28;20946;-54
2021/08/15 04:46:53;;;;;;;10.17;9.10;;;20.30;1.00;;;;;;5087207;28;20199;-53
2021/08/15 04:49:18;;;;;;;11.63;10.43;;;20.30;1.00;;;;;;5086415;28;20178;-54
2021/08/15 04:51:44;;;;;;;9.93;8.63;;;20.30;1.00;;;;;;5086554;28;20289;-52
2021/08/15 04:54:09;;;;;;;10.50;9.40;;;20.50;1.00;;;;;;5089238;28;20191;-53
2021/08/15 04:56:35;;;;;;;10.13;8.43;;;20.60;1.00;;;;;;5076519;28;20241;-55
2021/08/15 04:59:00;;;;;;;9.17;8.37;;;20.50;1.00;;;;;;5086252;28;20205;-54
2021/08/15 05:01:26;;;;;;;11.90;9.97;;;20.60;1.00;;;;;;5088083;28;20193;-54
2021/08/15 05:03:52;;;;;;;10.47;9.37;;;20.60;1.00;;;;;;5077550;28;20199;-53
2021/08/15 05:06:18;;;;;;;10.10;9.10;;;20.60;1.00;;;;;;5088164;28;20186;-55
2021/08/15 05:08:44;;;;;;;10.77;9.23;;;20.50;1.00;;;;;;5084061;28;20509;-53
2021/08/15 05:11:10;;;;;;;9.80;8.90;;;20.50;1.00;;;;;;5089391;28;20837;-53
2021/08/15 05:13:35;;;;;;;10.10;9.10;;;20.50;1.00;;;;;;5084051;28;20202;-53
2021/08/15 05:16:01;;;;;;;11.10;10.10;;;20.50;1.00;;;;;;5086030;28;20212;-53
2021/08/15 05:18:26;;;;;;;9.33;8.43;;;20.50;1.00;;;;;;5082794;28;20261;-55
2021/08/15 05:20:52;;;;;;;10.07;9.07;;;20.60;1.00;;;;;;5083366;28;20537;-54
2021/08/15 05:23:17;;;;;;;10.10;9.20;;;20.80;1.00;;;;;;5089063;28;20217;-55
2021/08/15 05:25:43;;;;;;;10.10;9.10;;;20.90;1.00;;;;;;5081650;28;20268;-55
2021/08/15 05:28:08;;;;;;;9.87;8.87;;;20.90;1.00;;;;;;5082745;28;20846;-53
2021/08/15 05:30:34;;;;;;;10.60;9.63;;;21.00;1.00;;;;;;5087709;28;20206;-56
2021/08/15 05:33:00;;;;;;;9.77;8.77;;;21.10;1.00;;;;;;5087963;28;20525;-54
2021/08/15 05:35:26;;;;;;;10.13;8.50;;;21.10;1.00;;;;;;5086005;28;20182;-53
2021/08/15 05:37:51;;;;;;;12.33;9.00;;;21.20;1.00;;;;;;5085881;28;20675;-53
2021/08/15 05:40:17;;;;;;;10.17;9.17;;;21.30;1.00;;;;;;5083465;28;20182;-54
2021/08/15 05:42:43;;;;;;;9.43;8.53;;;21.40;1.00;;;;;;5088578;28;20902;-55
2021/08/15 05:45:10;;;;;;;10.40;9.50;;;21.60;1.00;;;;;;5082807;28;20467;-55
2021/08/15 05:47:35;;;;;;;10.70;9.67;;;21.60;1.00;;;;;;5088927;28;20197;-53
2021/08/15 05:50:02;;;;;;;9.13;8.30;;;21.70;1.00;;;;;;5082666;28;20933;-54
2021/08/15 05:52:27;;;;;;;10.83;9.20;;;21.80;1.00;;;;;;5087611;28;20221;-53
2021/08/15 05:54:54;;;;;;;10.20;9.20;;;21.80;1.00;;;;;;5081640;28;20980;-53
2021/08/15 05:57:19;;;;;;;10.50;8.23;;;21.90;1.00;;;;;;5087687;28;20210;-54
2021/08/15 05:59:45;;;;;;;9.10;8.23;;;21.90;1.00;;;;;;5082371;28;20534;-54
2021/08/15 06:02:11;;;;;;;8.60;7.90;;;22.00;1.00;;;;;;5086755;28;20194;-53
2021/08/15 06:04:36;;;;;;;9.87;8.97;;;22.20;1.00;;;;;;5090736;28;20194;-55
2021/08/15 06:07:02;;;;;;;9.93;8.93;;;22.20;1.00;;;;;;5091644;28;20707;-53
2021/08/15 06:09:27;;;;;;;9.43;8.50;;;22.20;1.00;;;;;;5089025;28;20197;-53
2021/08/15 06:11:53;;;;;;;10.70;9.70;;;22.20;1.00;;;;;;5091861;28;20659;-53
2021/08/15 06:14:19;;;;;;;9.80;8.90;;;22.20;1.00;;;;;;5089370;28;20179;-53
2021/08/15 06:16:45;;;;;;;10.00;8.70;;;22.40;1.00;;;;;;5088221;28;20726;-54
2021/08/15 06:19:11;;;;;;;10.17;9.07;;;22.50;1.00;;;;;;5089302;28;20194;-54
2021/08/15 06:21:37;;;;;;;10.83;8.87;;;22.50;1.00;;;;;;5083442;28;20441;-52
2021/08/15 06:24:03;;;;;;;9.60;8.30;;;22.60;1.00;;;;;;5083676;28;20446;-53
2021/08/15 06:26:29;;;;;;;12.63;9.10;;;22.80;1.00;;;;;;5088803;28;21007;-55
2021/08/15 06:28:54;;;;;;;9.10;8.30;;;23.00;1.00;;;;;;5075176;28;20525;-55
2021/08/15 06:31:21;;;;;;;9.93;8.90;;;23.10;1.00;;;;;;5088922;28;20209;-55
2021/08/15 06:33:46;;;;;;;10.13;8.30;;;23.20;1.00;;;;;;5086960;28;20282;-53
2021/08/15 06:36:12;;;;;;;10.87;9.73;;;23.40;1.00;;;;;;5091359;28;20536;-56
2021/08/15 06:38:38;;;;;;;11.30;8.30;;;23.40;1.00;;;;;;5082669;28;20189;-53
2021/08/15 06:41:03;;;;;;;12.03;9.07;;;23.60;1.00;;;;;;5091480;28;20186;-54
2021/08/15 06:43:29;;;;;;;8.67;7.87;;;23.70;1.00;;;;;;5088007;28;20214;-53
2021/08/15 06:45:55;;;;;;;9.20;8.30;;;23.90;1.00;;;;;;5084726;28;20194;-53
2021/08/15 06:48:22;;;;;;;9.10;8.20;;;23.90;1.00;;;;;;5082123;28;20252;-54
2021/08/15 06:50:47;;;;;;;8.80;7.90;;;23.90;1.00;;;;;;5083012;28;20714;-54
2021/08/15 06:53:13;;;;;;;9.10;7.97;;;24.00;1.00;;;;;;5086210;28;20449;-52
2021/08/15 06:55:38;;;;;;;9.97;8.23;;;24.20;1.00;;;;;;5089907;28;20179;-53
2021/08/15 06:58:04;;;;;;;10.50;7.60;;;24.40;1.00;;;;;;5085289;28;20186;-53
2021/08/15 07:00:29;;;;;;;8.47;7.60;;;24.50;1.00;;;;;;5085678;28;20282;-55
2021/08/15 07:02:55;;;;;;;10.43;8.03;;;24.70;1.00;;;;;;5083254;28;20194;-54
2021/08/15 07:05:20;;;;;;;13.67;8.83;;;24.90;1.00;;;;;;5087609;28;20187;-54
2021/08/15 07:07:46;;;;;;;12.63;7.77;;;24.90;1.00;;;;;;5078786;28;20194;-53
2021/08/15 07:10:12;;;;;;;9.10;8.20;;;25.00;1.00;;;;;;5080809;28;20179;-51
2021/08/15 07:12:37;;;;;;;8.90;7.30;;;25.20;1.00;;;;;;5079094;28;20210;-53
2021/08/15 07:15:04;;;;;;;8.43;7.30;;;25.30;1.00;;;;;;5091442;28;20271;-54
2021/08/15 07:17:29;;;;;;;10.70;8.30;;;25.50;1.00;;;;;;5085565;28;20241;-54
2021/08/15 07:19:55;;;;;;;9.10;8.20;;;25.70;1.00;;;;;;5083271;28;21000;-53
2021/08/15 07:22:21;;;;;;;7.83;7.13;;;25.60;1.00;;;;;;5089783;28;20263;-52
2021/08/15 07:24:46;;;;;;;8.60;7.80;;;25.60;1.00;;;;;;5088785;28;20183;-54
2021/08/15 07:27:12;;;;;;;7.90;7.20;;;25.60;1.00;;;;;;5091067;28;20186;-54
2021/08/15 07:29:38;;;;;;;7.47;6.87;;;25.30;1.00;;;;;;5088684;28;20548;-54
2021/08/15 07:32:04;;;;;;;8.33;7.47;;;25.30;1.00;;;;;;5088347;28;20469;-53
2021/08/15 07:34:29;;;;;;;8.13;7.30;;;25.00;1.00;;;;;;5085683;28;20198;-54
2021/08/15 07:36:55;;;;;;;7.73;6.30;;;25.30;1.00;;;;;;5086298;28;20451;-52
2021/08/15 07:39:20;;;;;;;8.77;7.50;;;25.50;1.00;;;;;;5091166;28;20186;-52
2021/08/15 07:41:46;;;;;;;7.90;7.20;;;25.60;1.00;;;;;;5083609;28;20540;-54
2021/08/15 07:44:11;;;;;;;8.80;6.50;;;25.60;1.00;;;;;;5083582;28;20674;-56
2021/08/15 07:46:37;;;;;;;11.80;7.30;;;25.60;1.00;;;;;;5089091;28;20190;-52
2021/08/15 07:49:03;;;;;;;6.70;6.00;;;25.70;1.00;;;;;;5089554;28;20281;-53
2021/08/15 07:51:29;;;;;;;7.20;5.90;;;25.70;1.00;;;;;;5081465;28;20241;-52
2021/08/15 07:53:55;;;;;;;11.00;6.40;;;25.90;1.00;;;;;;5082486;28;20194;-54
2021/08/15 07:56:21;;;;;;;8.23;6.90;;;26.10;1.00;;;;;;5082933;28;20526;-54
2021/08/15 07:58:46;;;;;;;8.27;6.40;;;26.20;1.00;;;;;;5083215;28;20480;-53
2021/08/15 08:01:12;;;;;;;9.70;6.73;;;26.30;1.00;;;;;;5084034;28;20182;-53
2021/08/15 08:03:38;;;;;;;7.00;5.27;;;26.50;1.00;;;;;;5082653;28;20183;-52
2021/08/15 08:06:04;;;;;;;9.03;6.23;;;26.80;1.00;;;;;;5088093;28;20256;-55
2021/08/15 08:08:30;;;;;;;8.47;5.90;;;26.90;1.00;;;;;;5082684;28;20434;-54
2021/08/15 08:10:55;;;;;;;8.33;6.37;;;26.70;1.00;;;;;;5086992;28;20202;-54
2021/08/15 08:13:23;;;;;;;6.10;5.50;;;26.90;1.00;;;;;;5074751;28;20182;-53
2021/08/15 08:15:49;;;;;;;10.27;6.70;;;26.90;1.00;;;;;;5076053;28;20190;-53
2021/08/15 08:18:15;;;;;;;7.30;6.60;;;27.10;1.00;;;;;;5086764;28;20509;-52
2021/08/15 08:20:40;;;;;;;6.93;6.07;;;27.10;1.00;;;;;;5075285;28;20445;-52
2021/08/15 08:23:09;;;;;;;7.07;6.23;;;27.00;1.00;;;;;;5077217;28;20183;-52
2021/08/15 08:25:36;;;;;;;7.73;6.40;;;27.10;1.00;;;;;;5080685;28;20534;-53
2021/08/15 08:28:02;;;;;;;8.20;6.90;;;27.10;1.00;;;;;;5084516;28;20909;-52
2021/08/15 08:30:28;;;;;;;7.07;5.97;;;27.10;1.00;;;;;;5088793;28;20475;-54
2021/08/15 08:32:54;;;;;;;9.23;6.30;;;27.00;1.00;;;;;;5087650;28;20407;-52
2021/08/15 08:35:20;;;;;;;9.23;6.27;;;27.00;1.00;;;;;;5089201;28;20185;-53
2021/08/15 08:37:47;;;;;;;10.37;7.17;;;27.30;1.00;;;;;;5089630;28;20179;-55
2021/08/15 08:40:14;;;;;;;10.23;6.23;;;27.70;1.00;;;;;;5084728;28;20257;-52
2021/08/15 08:42:42;;;;;;;12.23;6.00;;;27.80;1.00;;;;;;5080915;28;20472;-52
2021/08/15 08:45:09;;;;;;;7.37;6.63;;;27.70;1.00;;;;;;5085543;28;20739;-53
2021/08/15 08:47:35;;;;;;;7.27;6.50;;;27.60;1.00;;;;;;5083401;28;20460;-54
2021/08/15 08:50:00;;;;;;;7.50;5.50;;;27.60;1.00;;;;;;5090270;28;20480;-54
2021/08/15 08:52:31;;;;;;;8.80;5.60;;;27.80;1.00;;;;;;5087140;28;20202;-53
2021/08/15 08:54:58;;;;;;;9.57;6.57;;;27.40;1.00;;;;;;5087028;28;20536;-52
2021/08/15 08:57:24;;;;;;;7.00;6.20;;;27.30;1.00;;;;;;5075127;28;20456;-53
2021/08/15 08:59:50;;;;;;;14.77;6.60;;;27.30;1.00;;;;;;5082757;28;20807;-54
2021/08/15 09:02:16;;;;;;;6.10;5.53;;;27.70;1.00;;;;;;5085040;28;20187;-54
2021/08/15 09:04:42;;;;;;;6.33;5.70;;;27.80;1.00;;;;;;5087154;28;20178;-53
2021/08/15 09:07:23;;;;;;;9.23;6.23;;;28.10;1.00;;;;;;5073804;28;20457;-54
2021/08/15 09:09:59;;;;;;;5.83;5.30;;;28.10;1.00;;;;;;5083582;28;20436;-52
2021/08/15 09:12:48;;;;;;;6.90;5.90;;;28.10;1.00;;;;;;5086668;28;20467;-52
2021/08/15 09:15:22;;;;;;;8.13;6.00;;;28.60;1.00;;;;;;5079250;28;20434;-54
2021/08/15 09:17:48;;;;;;;6.30;5.70;;;28.90;1.00;;;;;;5087267;28;20451;-53
2021/08/15 09:20:36;;;;;;;9.03;5.57;;;29.30;1.00;;;;;;5090125;28;20436;-55
2021/08/15 09:23:30;;;;;;;6.40;5.30;;;29.60;1.00;;;;;;5077817;28;20479;-53
2021/08/15 09:26:15;;;;;;;10.10;6.00;;;29.70;1.00;;;;;;5082198;28;20436;-53
2021/08/15 09:28:42;;;;;;;6.17;5.57;;;29.90;1.00;;;;;;5089585;28;20753;-53
2021/08/15 09:31:29;;;;;;;6.37;5.73;;;30.00;1.00;;;;;;5085910;28;20567;-55
2021/08/15 09:33:56;;;;;;;9.10;5.20;;;30.30;1.00;;;;;;5082091;28;20444;-55
2021/08/15 09:36:40;;;;;;;9.47;5.60;;;30.40;1.00;;;;;;5079740;28;20441;-54
2021/08/15 09:39:07;;;;;;;9.63;6.37;;;30.30;1.00;;;;;;5080586;28;20416;-54
2021/08/15 09:41:38;;;;;;;6.63;5.93;;;30.30;1.00;;;;;;5090710;28;20436;-53
2021/08/15 09:44:24;;;;;;;5.93;5.30;;;30.10;1.00;;;;;;5086020;28;20444;-53
2021/08/15 09:47:02;;;;;;;10.10;5.40;;;29.90;1.00;;;;;;5082616;28;20448;-53
2021/08/15 09:49:37;;;;;;;8.60;5.30;;;29.60;1.00;;;;;;5086509;28;20500;-53
2021/08/15 09:52:03;;;;;;;9.83;6.00;;;29.50;1.00;;;;;;5082787;28;20472;-54
2021/08/15 09:54:30;;;;;;;5.87;5.00;;;29.50;1.00;;;;;;5080378;28;20442;-55
2021/08/15 09:56:57;;;;;;;6.57;5.67;;;29.20;1.00;;;;;;5088518;28;20432;-53
2021/08/15 09:59:25;;;;;;;6.23;5.57;;;29.10;1.00;;;;;;5086190;28;20456;-54
2021/08/15 10:01:53;;;;;;;7.87;6.27;;;28.90;1.00;;;;;;5086632;28;20468;-53
2021/08/15 10:04:20;;;;;;;6.03;5.27;;;28.70;1.00;;;;;;5076625;28;20452;-53
2021/08/15 10:06:48;;;;;;;6.30;5.70;;;28.70;1.00;;;;;;5089805;28;20411;-54
2021/08/15 10:09:14;;;;;;;8.13;5.80;;;28.90;1.00;;;;;;5081778;28;20563;-53
2021/08/15 10:11:40;;;;;;;7.17;5.17;;;29.50;1.00;;;;;;5088206;28;20509;-52
2021/08/15 10:14:08;;;;;;;7.30;4.80;;;30.00;1.00;;;;;;5084079;28;20179;-55
2021/08/15 10:16:37;;;;;;;6.63;5.80;;;30.20;1.00;;;;;;5086252;28;20453;-56
2021/08/15 10:19:09;;;;;;;6.67;6.00;;;30.30;1.00;;;;;;5081241;28;20444;-53
2021/08/15 10:21:41;;;;;;;6.17;5.30;;;29.90;1.00;;;;;;5090508;28;20537;-53
2021/08/15 10:24:10;;;;;;;7.60;5.60;;;29.90;1.00;;;;;;5085509;28;20464;-52
2021/08/15 10:26:46;;;;;;;6.27;5.20;;;30.00;1.00;;;;;;5085985;28;20494;-55
2021/08/15 10:29:33;;;;;;;6.47;5.40;;;30.10;1.00;;;;;;5084603;28;21210;-54
2021/08/15 10:32:09;;;;;;;9.47;5.23;;;30.30;1.00;;;;;;5090639;28;20461;-53
2021/08/15 10:35:04;;;;;;;6.43;5.73;;;30.40;1.00;;;;;;5081341;28;20977;-53
2021/08/15 10:37:34;;;;;;;7.17;5.90;;;30.60;1.00;;;;;;5073568;28;20937;-55
2021/08/15 10:40:04;;;;;;;6.03;5.17;;;30.10;1.00;;;;;;5085680;28;20412;-53
2021/08/15 10:42:46;;;;;;;9.83;6.13;;;30.10;1.00;;;;;;5080858;28;20468;-53
2021/08/15 10:45:26;;;;;;;6.40;5.80;;;30.10;1.00;;;;;;5088942;28;20454;-54
2021/08/15 10:48:10;;;;;;;5.63;5.13;;;30.20;1.00;;;;;;5086074;28;20462;-55
2021/08/15 10:51:08;;;;;;;8.83;5.83;;;30.50;1.00;;;;;;5073922;28;20424;-52
2021/08/15 10:53:33;;;;;;;5.90;5.30;;;30.10;1.00;;;;;;5067461;28;20908;-55
2021/08/15 10:56:04;;;;;;;8.50;5.27;;;30.40;1.00;;;;;;5084179;28;20443;-52
2021/08/15 10:58:39;;;;;;;6.77;4.77;;;30.60;1.00;;;;;;5077203;28;20260;-53
2021/08/15 11:01:18;;;;;;;5.50;5.00;;;30.90;1.00;;;;;;5079530;28;21169;-54
2021/08/15 11:03:52;;;;;;;8.70;5.60;;;31.10;1.00;;;;;;5092423;28;20773;-54
2021/08/15 11:06:30;;;;;;;10.17;5.80;;;31.30;1.00;;;;;;5082542;28;20446;-54
2021/08/15 11:08:56;;;;;;;5.77;5.27;;;30.90;1.00;;;;;;5088549;28;20524;-54
2021/08/15 11:11:25;;;;;;;6.00;5.23;;;30.90;1.00;;;;;;5091354;28;20488;-54
2021/08/15 11:14:24;;;;;;;13.13;6.60;;;30.70;1.00;;;;;;5091454;28;20419;-53
2021/08/15 11:16:56;;;;;;;6.73;4.87;;;30.40;1.00;;;;;;5088278;28;20460;-55
2021/08/15 11:19:21;;;;;;;6.30;5.43;;;30.40;1.00;;;;;;5087589;28;20755;-54
2021/08/15 11:22:16;;;;;;;9.10;5.87;;;30.90;1.00;;;;;;5086183;28;20455;-52
2021/08/15 11:24:45;;;;;;;5.60;4.80;;;30.50;1.00;;;;;;5084626;28;20186;-53
2021/08/15 11:27:14;;;;;;;6.90;5.20;;;30.40;1.00;;;;;;5077449;28;20486;-54
2021/08/15 11:29:42;;;;;;;7.37;5.47;;;30.40;1.00;;;;;;5083978;28;20413;-54
2021/08/15 11:32:21;;;;;;;5.80;5.17;;;30.40;1.00;;;;;;5086265;28;20539;-52
2021/08/15 11:34:54;;;;;;;5.80;4.87;;;30.50;1.00;;;;;;5087794;28;20531;-52
2021/08/15 11:37:22;;;;;;;7.07;5.40;;;30.90;1.00;;;;;;5087282;28;20536;-54
2021/08/15 11:39:49;;;;;;;6.17;5.53;;;31.10;1.00;;;;;;5084072;28;20916;-54
2021/08/15 11:42:18;;;;;;;6.93;4.80;;;30.90;1.00;;;;;;5084711;28;20437;-53
2021/08/15 11:45:04;;;;;;;8.60;5.37;;;30.60;1.00;;;;;;5084425;28;20436;-53
2021/08/15 11:47:35;;;;;;;8.87;4.73;;;30.40;1.00;;;;;;5085958;28;20905;-54
2021/08/15 11:50:12;;;;;;;8.53;5.10;;;30.70;1.00;;;;;;5086620;28;20981;-53
2021/08/15 11:52:37;;;;;;;5.80;4.70;;;30.90;1.00;;;;;;5082665;28;20457;-53
2021/08/15 11:55:05;;;;;;;6.50;5.20;;;31.10;1.00;;;;;;5084127;28;20950;-53
2021/08/15 11:57:56;;;;;;;11.23;6.87;;;30.80;1.00;;;;;;5082339;28;20198;-53
2021/08/15 12:00:35;;;;;;;5.17;4.53;;;31.10;1.00;;;;;;5071829;28;20420;-54
2021/08/15 12:03:01;;;;;;;6.20;5.07;;;31.60;1.00;;;;;;5082402;28;20933;-52
2021/08/15 12:05:28;;;;;;;6.83;4.80;;;31.30;1.00;;;;;;5090649;28;20901;-53
2021/08/15 12:08:01;;;;;;;5.67;5.17;;;31.10;1.00;;;;;;5076127;28;20436;-54
2021/08/15 12:10:31;;;;;;;6.50;4.40;;;31.10;1.00;;;;;;5086103;28;20440;-54
2021/08/15 12:13:13;;;;;;;6.43;5.27;;;31.40;1.00;;;;;;5082787;28;20472;-54
2021/08/15 12:15:42;;;;;;;11.60;4.43;;;31.10;1.00;;;;;;5090244;28;21590;-52
2021/08/15 12:18:08;;;;;;;5.97;4.77;;;31.10;1.00;;;;;;5085430;28;20462;-54
2021/08/15 12:20:44;;;;;;;5.50;4.63;;;31.10;1.00;;;;;;5080562;28;20452;-53
2021/08/15 12:23:09;;;;;;;5.77;4.60;;;31.20;1.00;;;;;;5083307;28;20335;-54
2021/08/15 12:25:35;;;;;;;6.87;4.77;;;31.20;1.00;;;;;;5086433;28;20586;-52
2021/08/15 12:28:11;;;;;;;5.30;4.47;;;31.10;1.00;;;;;;5087129;28;20281;-54
2021/08/15 12:30:38;;;;;;;6.10;4.43;;;31.30;1.00;;;;;;5083932;28;20183;-53
2021/08/15 12:33:22;;;;;;;4.90;4.40;;;31.30;1.00;;;;;;5078481;28;21050;-54
2021/08/15 12:35:48;;;;;;;4.80;4.20;;;31.20;1.00;;;;;;5076511;28;20533;-52
2021/08/15 12:38:30;;;;;;;4.27;3.87;;;30.80;1.00;;;;;;5088285;28;20535;-53
2021/08/15 12:41:16;;;;;;;5.13;4.20;;;30.70;1.00;;;;;;5089037;28;20191;-51
2021/08/15 12:43:41;;;;;;;7.33;4.47;;;30.80;1.00;;;;;;5088603;28;20797;-52
2021/08/15 12:46:23;;;;;;;5.20;3.80;;;30.70;1.00;;;;;;5079692;28;20529;-53
2021/08/15 12:48:49;;;;;;;5.63;3.70;;;30.70;1.00;;;;;;5081099;28;20190;-53
2021/08/15 12:51:19;;;;;;;4.50;3.97;;;30.70;1.00;;;;;;5089001;28;20472;-52
2021/08/15 12:53:45;;;;;;;4.40;3.63;;;30.80;1.00;;;;;;5076427;28;20222;-55
2021/08/15 12:56:17;;;;;;;5.93;3.90;;;31.00;1.00;;;;;;5078966;28;20452;-53
2021/08/15 12:58:43;;;;;;;7.07;4.47;;;30.90;1.00;;;;;;5076533;28;20195;-53